Time;durP1;ratioP1;P1;durP2;ratioP2;P2;SDS_P1;SDS_P2;PMS_P1;PMS_P2;Temp;Humidity;BMP_temperature;BMP_pressure;BME280_temperature;BME280_humidity;BME280_pressure;Samples;Min_cycle;Max_cycle;Signal;HPM_P1;HPM_P2
2022/12/18 00:01:57;;;;;;;105.13;28.80;;;;;;;;;;4974416;28;20030;-87
2022/12/18 00:04:25;;;;;;;61.25;17.95;;;;;;;;;;4995414;28;20033;-87
2022/12/18 00:06:51;;;;;;;62.35;17.52;;;;;;;;;;4998450;28;20502;-88
2022/12/18 00:09:17;;;;;;;41.00;9.35;;;;;;;;;;4973781;28;20052;-88
2022/12/18 00:11:43;;;;;;;25.98;9.85;;;;;;;;;;4990367;28;20463;-87
2022/12/18 00:14:13;;;;;;;90.10;24.15;;;;;;;;;;4989825;28;20058;-86
2022/12/18 00:16:40;;;;;;;45.05;18.25;;;;;;;;;;4972942;28;20422;-87
2022/12/18 00:19:08;;;;;;;51.83;15.05;;;;;;;;;;4992476;28;20419;-87
2022/12/18 00:21:34;;;;;;;84.05;23.38;;;;;;;;;;4986465;28;20056;-87
2022/12/18 00:24:00;;;;;;;80.00;21.15;;;;;;;;;;4985892;28;20082;-88
2022/12/18 00:26:28;;;;;;;54.45;16.80;;;;;;;;;;4973692;28;20122;-87
2022/12/18 00:28:55;;;;;;;92.10;25.13;;;;;;;;;;4992208;28;20137;-86
2022/12/18 00:31:23;;;;;;;19.98;9.30;;;;;;;;;;4990435;28;20088;-89
2022/12/18 00:33:49;;;;;;;54.85;13.80;;;;;;;;;;4989706;28;20500;-86
2022/12/18 00:36:17;;;;;;;67.13;18.65;;;;;;;;;;4987155;28;20547;-89
2022/12/18 00:38:43;;;;;;;49.88;17.85;;;;;;;;;;4986136;28;20414;-91
2022/12/18 00:41:09;;;;;;;72.25;20.17;;;;;;;;;;4989579;28;20539;-87
2022/12/18 00:43:36;;;;;;;76.88;15.90;;;;;;;;;;4988059;28;20037;-88
2022/12/18 00:46:02;;;;;;;59.65;16.05;;;;;;;;;;5004939;28;20046;-87
2022/12/18 00:48:28;;;;;;;79.90;21.98;;;;;;;;;;4968689;28;20418;-86
2022/12/18 00:50:54;;;;;;;66.72;18.65;;;;;;;;;;4971487;28;20042;-87
2022/12/18 00:53:20;;;;;;;74.32;23.10;;;;;;;;;;5005018;28;20038;-86
2022/12/18 00:55:46;;;;;;;81.50;19.63;;;;;;;;;;4968206;28;20128;-86
2022/12/18 00:58:13;;;;;;;63.35;18.77;;;;;;;;;;4972664;28;20044;-86
2022/12/18 01:00:39;;;;;;;83.28;23.17;;;;;;;;;;4982271;28;20397;-89
2022/12/18 01:03:06;;;;;;;73.45;19.42;;;;;;;;;;4972145;28;20052;-88
2022/12/18 01:05:32;;;;;;;107.25;26.00;;;;;;;;;;4982729;28;20022;-87
2022/12/18 01:07:58;;;;;;;83.82;26.92;;;;;;;;;;4970478;28;20603;-87
2022/12/18 01:10:25;;;;;;;101.20;26.38;;;;;;;;;;4972950;28;20201;-87
2022/12/18 01:12:51;;;;;;;79.63;24.50;;;;;;;;;;4969874;28;20153;-86
2022/12/18 01:15:17;;;;;;;67.88;15.88;;;;;;;;;;4988632;28;20034;-88
2022/12/18 01:17:43;;;;;;;88.28;23.60;;;;;;;;;;5009910;28;20034;-86
2022/12/18 01:20:10;;;;;;;71.40;19.75;;;;;;;;;;4972265;28;20026;-87
2022/12/18 01:22:36;;;;;;;50.30;13.93;;;;;;;;;;4990573;28;20037;-86
2022/12/18 01:25:04;;;;;;;102.72;23.85;;;;;;;;;;4972478;28;20034;-87
2022/12/18 01:27:30;;;;;;;88.60;22.10;;;;;;;;;;4975301;28;20030;-87
2022/12/18 01:29:56;;;;;;;65.50;18.63;;;;;;;;;;4979040;28;20034;-86
2022/12/18 01:32:22;;;;;;;86.70;23.48;;;;;;;;;;4990702;28;20030;-87
2022/12/18 01:34:48;;;;;;;68.05;20.48;;;;;;;;;;4992195;28;20452;-88
2022/12/18 01:37:14;;;;;;;83.93;27.02;;;;;;;;;;4978003;28;20457;-86
2022/12/18 01:39:40;;;;;;;80.97;23.20;;;;;;;;;;4976276;28;20073;-87
2022/12/18 01:42:12;;;;;;;87.25;23.90;;;;;;;;;;4989111;28;20541;-87
2022/12/18 01:44:57;;;;;;;79.07;21.83;;;;;;;;;;4989884;28;20038;-88
2022/12/18 01:47:38;;;;;;;99.50;26.08;;;;;;;;;;5004794;28;20053;-88
2022/12/18 01:50:07;;;;;;;30.13;10.27;;;;;;;;;;5002640;28;20079;-87
2022/12/18 01:52:34;;;;;;;59.92;16.75;;;;;;;;;;5004613;28;20053;-88
2022/12/18 01:55:00;;;;;;;79.35;21.92;;;;;;;;;;4991243;28;20034;-87
2022/12/18 01:57:27;;;;;;;73.68;20.02;;;;;;;;;;4992068;28;20049;-88
2022/12/18 01:59:54;;;;;;;103.18;25.50;;;;;;;;;;4971838;28;20124;-87
2022/12/18 02:02:21;;;;;;;94.53;24.85;;;;;;;;;;4990690;28;20038;-86
2022/12/18 02:04:47;;;;;;;88.82;24.08;;;;;;;;;;4984951;28;20517;-86
2022/12/18 02:07:13;;;;;;;93.32;25.13;;;;;;;;;;4992728;28;20038;-87
2022/12/18 02:09:45;;;;;;;92.82;25.83;;;;;;;;;;4987353;28;20553;-88
2022/12/18 02:12:16;;;;;;;80.97;21.85;;;;;;;;;;4987816;28;20577;-87
2022/12/18 02:14:45;;;;;;;88.45;21.98;;;;;;;;;;4983527;28;20026;-86
2022/12/18 02:17:19;;;;;;;98.45;26.40;;;;;;;;;;5001394;28;20067;-89
2022/12/18 02:19:58;;;;;;;87.63;25.17;;;;;;;;;;4996444;28;20033;-89
2022/12/18 02:22:30;;;;;;;85.45;24.52;;;;;;;;;;4996045;28;20029;-86
2022/12/18 02:25:12;;;;;;;93.78;22.80;;;;;;;;;;4987713;28;20113;-86
2022/12/18 02:27:39;;;;;;;92.10;25.27;;;;;;;;;;5002995;28;20045;-87
2022/12/18 02:30:06;;;;;;;107.82;24.33;;;;;;;;;;4977382;28;20584;-86
2022/12/18 02:32:35;;;;;;;92.53;25.35;;;;;;;;;;4987099;28;20092;-87
2022/12/18 02:35:02;;;;;;;95.20;26.38;;;;;;;;;;4983088;28;20056;-87
2022/12/18 02:37:30;;;;;;;85.20;22.90;;;;;;;;;;4990162;28;20036;-87
2022/12/18 02:39:57;;;;;;;87.72;25.45;;;;;;;;;;4999512;28;20363;-89
2022/12/18 02:42:23;;;;;;;97.10;23.60;;;;;;;;;;4990429;28;20040;-88
2022/12/18 02:44:50;;;;;;;99.05;23.33;;;;;;;;;;4992750;28;20161;-90
2022/12/18 02:47:25;;;;;;;90.25;24.10;;;;;;;;;;4988726;28;20038;-88
2022/12/18 02:50:00;;;;;;;97.88;25.85;;;;;;;;;;4988948;28;20574;-88
2022/12/18 02:52:40;;;;;;;88.97;24.33;;;;;;;;;;4986144;28;20545;-87
2022/12/18 02:55:13;;;;;;;89.75;24.70;;;;;;;;;;4988212;28;20060;-87
2022/12/18 02:57:45;;;;;;;96.60;23.88;;;;;;;;;;4987421;28;20449;-88
2022/12/18 03:00:23;;;;;;;91.72;22.45;;;;;;;;;;4986279;28;20488;-87
2022/12/18 03:02:56;;;;;;;97.72;24.98;;;;;;;;;;4985258;28;20113;-87
2022/12/18 03:05:30;;;;;;;93.95;23.70;;;;;;;;;;4988652;28;20256;-85
2022/12/18 03:08:06;;;;;;;100.28;24.35;;;;;;;;;;4986658;28;20107;-87
2022/12/18 03:10:33;;;;;;;99.75;25.17;;;;;;;;;;4980670;28;20030;-87
2022/12/18 03:13:05;;;;;;;101.15;25.13;;;;;;;;;;4993781;28;21642;-88
2022/12/18 03:15:34;;;;;;;63.05;17.33;;;;;;;;;;4989197;28;20511;-88
2022/12/18 03:18:05;;;;;;;92.07;24.90;;;;;;;;;;5005040;28;20037;-87
2022/12/18 03:20:32;;;;;;;95.28;26.08;;;;;;;;;;4992317;28;20068;-89
2022/12/18 03:23:03;;;;;;;95.97;26.42;;;;;;;;;;5003580;28;20032;-88
2022/12/18 03:25:31;;;;;;;99.57;25.52;;;;;;;;;;4987515;28;20053;-88
2022/12/18 03:27:59;;;;;;;113.35;27.70;;;;;;;;;;5007002;28;20415;-87
2022/12/18 03:30:26;;;;;;;93.25;26.65;;;;;;;;;;4989944;28;20044;-87
2022/12/18 03:32:54;;;;;;;82.63;23.65;;;;;;;;;;5005241;28;20030;-87
2022/12/18 03:35:27;;;;;;;76.85;23.27;;;;;;;;;;4989964;28;20038;-87
2022/12/18 03:37:53;;;;;;;85.93;23.33;;;;;;;;;;4994563;28;20036;-88
2022/12/18 03:40:21;;;;;;;97.63;26.65;;;;;;;;;;4982909;28;22417;-88
2022/12/18 03:42:53;;;;;;;104.65;25.77;;;;;;;;;;4988434;28;20109;-87
2022/12/18 03:45:21;;;;;;;100.20;24.10;;;;;;;;;;5000265;28;20037;-87
2022/12/18 03:47:57;;;;;;;91.00;24.67;;;;;;;;;;4991665;28;20455;-90
2022/12/18 03:50:28;;;;;;;100.50;26.27;;;;;;;;;;4967905;28;20414;-88
2022/12/18 03:53:00;;;;;;;92.93;25.55;;;;;;;;;;4973673;28;20041;-87
2022/12/18 03:55:28;;;;;;;103.78;26.63;;;;;;;;;;4974870;28;20035;-87
2022/12/18 03:57:54;;;;;;;93.50;27.17;;;;;;;;;;4968509;28;20590;-87
2022/12/18 04:00:21;;;;;;;112.20;27.27;;;;;;;;;;4961774;28;20495;-87
2022/12/18 04:02:50;;;;;;;106.40;27.27;;;;;;;;;;4967585;28;20030;-87
2022/12/18 04:05:17;;;;;;;100.15;24.60;;;;;;;;;;4966937;28;20450;-87
2022/12/18 04:07:44;;;;;;;112.20;27.90;;;;;;;;;;4969737;28;20164;-87
2022/12/18 04:10:11;;;;;;;90.80;25.30;;;;;;;;;;4953501;28;20685;-87
2022/12/18 04:12:37;;;;;;;91.32;25.48;;;;;;;;;;4974620;28;20369;-87
2022/12/18 04:15:04;;;;;;;99.82;26.15;;;;;;;;;;4952771;28;20082;-87
2022/12/18 04:17:30;;;;;;;97.38;26.67;;;;;;;;;;4970683;28;20033;-88
2022/12/18 04:19:56;;;;;;;80.57;19.60;;;;;;;;;;4954417;28;20647;-87
2022/12/18 04:22:22;;;;;;;115.75;28.17;;;;;;;;;;4958280;28;20034;-86
2022/12/18 04:24:48;;;;;;;93.38;26.30;;;;;;;;;;4952690;28;20031;-87
2022/12/18 04:27:14;;;;;;;103.32;26.27;;;;;;;;;;4970815;28;20074;-87
2022/12/18 04:29:40;;;;;;;83.55;26.70;;;;;;;;;;4952023;28;20472;-87
2022/12/18 04:32:06;;;;;;;96.60;27.45;;;;;;;;;;4968802;28;20038;-87
2022/12/18 04:34:32;;;;;;;86.40;22.95;;;;;;;;;;4951764;28;20054;-87
2022/12/18 04:36:58;;;;;;;97.25;26.42;;;;;;;;;;4954254;28;20030;-87
2022/12/18 04:39:24;;;;;;;88.43;24.10;;;;;;;;;;4958727;28;20038;-89
2022/12/18 04:41:50;;;;;;;95.57;23.27;;;;;;;;;;4952359;28;20034;-88
2022/12/18 04:44:16;;;;;;;101.07;25.80;;;;;;;;;;4953595;28;20082;-86
2022/12/18 04:46:42;;;;;;;98.03;24.83;;;;;;;;;;4972993;28;20047;-86
2022/12/18 04:49:10;;;;;;;98.95;25.38;;;;;;;;;;4990978;28;20100;-87
2022/12/18 04:51:36;;;;;;;101.28;24.20;;;;;;;;;;4989107;28;20030;-88
2022/12/18 04:54:02;;;;;;;83.15;25.15;;;;;;;;;;4990684;28;20038;-88
2022/12/18 04:56:28;;;;;;;96.53;23.45;;;;;;;;;;4987210;28;20034;-88
2022/12/18 04:58:54;;;;;;;85.47;24.02;;;;;;;;;;4979055;28;20121;-87
2022/12/18 05:01:20;;;;;;;87.28;23.75;;;;;;;;;;4976464;28;20137;-87
2022/12/18 05:03:46;;;;;;;97.25;23.27;;;;;;;;;;4976149;28;20114;-86
2022/12/18 05:06:12;;;;;;;90.57;24.05;;;;;;;;;;4975527;28;20030;-87
2022/12/18 05:08:39;;;;;;;92.53;26.23;;;;;;;;;;4990002;28;20030;-87
2022/12/18 05:11:06;;;;;;;77.57;23.42;;;;;;;;;;4984040;28;20030;-86
2022/12/18 05:13:32;;;;;;;90.97;24.45;;;;;;;;;;4986850;28;20569;-89
2022/12/18 05:16:02;;;;;;;86.45;23.30;;;;;;;;;;5002751;28;20034;-87
2022/12/18 05:18:29;;;;;;;92.80;23.42;;;;;;;;;;4973619;28;20410;-88
2022/12/18 05:20:55;;;;;;;88.85;22.63;;;;;;;;;;4985989;28;20030;-87
2022/12/18 05:23:22;;;;;;;76.07;22.00;;;;;;;;;;4977269;28;20124;-88
2022/12/18 05:25:51;;;;;;;89.70;25.50;;;;;;;;;;4988910;28;20128;-88
2022/12/18 05:28:17;;;;;;;76.05;18.90;;;;;;;;;;4991349;28;20342;-88
2022/12/18 05:30:47;;;;;;;84.40;22.70;;;;;;;;;;4989562;28;20044;-87
2022/12/18 05:33:13;;;;;;;94.22;21.02;;;;;;;;;;4990560;28;20068;-88
2022/12/18 05:35:39;;;;;;;110.50;23.73;;;;;;;;;;4975838;28;20065;-87
2022/12/18 05:38:05;;;;;;;88.72;23.35;;;;;;;;;;4997806;28;20166;-89
2022/12/18 05:40:31;;;;;;;77.45;20.67;;;;;;;;;;4987740;28;20030;-86
2022/12/18 05:42:57;;;;;;;89.13;21.73;;;;;;;;;;4977847;28;20138;-91
2022/12/18 05:45:23;;;;;;;97.05;23.92;;;;;;;;;;4983176;28;20070;-88
2022/12/18 05:47:49;;;;;;;76.90;21.83;;;;;;;;;;4975557;28;20189;-86
2022/12/18 05:50:15;;;;;;;85.45;23.10;;;;;;;;;;4988628;28;20113;-88
2022/12/18 05:52:41;;;;;;;86.32;20.48;;;;;;;;;;4991406;28;20041;-86
2022/12/18 05:55:07;;;;;;;91.28;22.17;;;;;;;;;;4991719;28;20037;-87
2022/12/18 05:57:33;;;;;;;84.88;22.27;;;;;;;;;;4974187;28;20054;-88
2022/12/18 05:59:59;;;;;;;74.72;20.63;;;;;;;;;;4990848;28;20022;-87
2022/12/18 06:02:25;;;;;;;80.65;22.55;;;;;;;;;;4991582;28;20042;-87
2022/12/18 06:04:51;;;;;;;66.15;17.45;;;;;;;;;;4974751;28;20076;-88
2022/12/18 06:07:18;;;;;;;87.40;22.70;;;;;;;;;;4990159;28;20037;-87
2022/12/18 06:09:44;;;;;;;68.18;21.20;;;;;;;;;;4983073;28;20474;-87
2022/12/18 06:12:10;;;;;;;81.40;21.40;;;;;;;;;;4989720;28;20037;-88
2022/12/18 06:14:36;;;;;;;79.97;21.88;;;;;;;;;;4977631;28;20496;-87
2022/12/18 06:17:02;;;;;;;94.32;22.25;;;;;;;;;;4974570;28;20301;-86
2022/12/18 06:19:28;;;;;;;71.30;21.25;;;;;;;;;;4977732;28;20117;-88
2022/12/18 06:21:54;;;;;;;56.95;16.48;;;;;;;;;;4973159;28;20053;-87
2022/12/18 06:24:20;;;;;;;71.38;20.63;;;;;;;;;;4975847;28;20038;-88
2022/12/18 06:26:46;;;;;;;70.60;20.30;;;;;;;;;;4992184;28;20027;-86
2022/12/18 06:29:12;;;;;;;70.65;21.08;;;;;;;;;;4986254;28;20025;-86
2022/12/18 06:31:38;;;;;;;77.07;19.85;;;;;;;;;;4983724;28;20524;-86
2022/12/18 06:34:05;;;;;;;72.72;19.65;;;;;;;;;;4979175;28;20430;-88
2022/12/18 06:36:31;;;;;;;79.90;19.23;;;;;;;;;;4994649;28;20045;-86
2022/12/18 06:38:57;;;;;;;74.55;16.83;;;;;;;;;;5006852;28;20818;-89
2022/12/18 06:41:23;;;;;;;68.18;18.80;;;;;;;;;;4977891;28;20045;-90
2022/12/18 06:43:49;;;;;;;66.30;18.23;;;;;;;;;;4994452;28;20026;-87
2022/12/18 06:46:15;;;;;;;63.42;18.17;;;;;;;;;;4972417;28;20080;-88
2022/12/18 06:48:48;;;;;;;55.92;16.70;;;;;;;;;;4987681;28;20061;-87
2022/12/18 06:51:16;;;;;;;53.55;17.70;;;;;;;;;;4979558;28;20026;-88
2022/12/18 06:53:42;;;;;;;59.30;17.88;;;;;;;;;;4973841;28;20074;-87
2022/12/18 06:56:08;;;;;;;59.03;17.90;;;;;;;;;;4950703;28;20046;-88
2022/12/18 06:58:34;;;;;;;46.42;16.40;;;;;;;;;;4957614;28;20041;-88
2022/12/18 07:01:01;;;;;;;58.00;17.52;;;;;;;;;;4969600;28;20030;-87
2022/12/18 07:03:27;;;;;;;57.70;16.88;;;;;;;;;;4990571;28;20045;-89
2022/12/18 07:05:53;;;;;;;62.40;17.83;;;;;;;;;;4989612;28;20450;-87
2022/12/18 07:08:19;;;;;;;53.38;15.77;;;;;;;;;;4990412;28;20034;-87
2022/12/18 07:10:45;;;;;;;59.17;14.35;;;;;;;;;;4985969;28;20038;-86
2022/12/18 07:13:11;;;;;;;50.22;15.63;;;;;;;;;;4974922;28;20409;-90
2022/12/18 07:15:37;;;;;;;54.20;16.00;;;;;;;;;;4970814;28;20081;-86
2022/12/18 07:18:04;;;;;;;38.78;12.57;;;;;;;;;;4969770;28;20108;-87
2022/12/18 07:20:30;;;;;;;59.65;15.65;;;;;;;;;;4973470;28;20030;-87
2022/12/18 07:22:56;;;;;;;60.22;17.00;;;;;;;;;;4976935;28;20385;-88
2022/12/18 07:25:22;;;;;;;49.30;13.55;;;;;;;;;;4985911;28;20402;-87
2022/12/18 07:27:48;;;;;;;55.00;15.95;;;;;;;;;;4987628;28;20030;-87
2022/12/18 07:30:14;;;;;;;58.25;15.55;;;;;;;;;;4974686;28;20041;-86
2022/12/18 07:32:40;;;;;;;43.88;15.43;;;;;;;;;;4989417;28;20057;-87
2022/12/18 07:35:06;;;;;;;46.45;15.65;;;;;;;;;;4969862;28;20034;-88
2022/12/18 07:37:34;;;;;;;53.72;17.50;;;;;;;;;;4987489;28;20121;-87
2022/12/18 07:40:03;;;;;;;51.15;17.63;;;;;;;;;;4983490;28;20025;-86
2022/12/18 07:42:35;;;;;;;43.40;15.65;;;;;;;;;;4991841;28;20100;-86
2022/12/18 07:45:05;;;;;;;54.88;16.42;;;;;;;;;;4990837;28;20026;-87
2022/12/18 07:47:31;;;;;;;49.50;14.70;;;;;;;;;;4973941;28;20041;-86
2022/12/18 07:50:04;;;;;;;49.45;14.85;;;;;;;;;;4974626;28;20053;-86
2022/12/18 07:52:30;;;;;;;51.50;14.15;;;;;;;;;;4991152;28;20033;-87
2022/12/18 07:54:59;;;;;;;49.90;16.20;;;;;;;;;;4992743;28;20076;-87
2022/12/18 07:57:25;;;;;;;46.45;14.70;;;;;;;;;;4973270;28;20037;-88
2022/12/18 07:59:51;;;;;;;50.47;15.05;;;;;;;;;;4975086;28;20076;-88
2022/12/18 08:02:17;;;;;;;64.05;16.20;;;;;;;;;;4976030;28;20037;-88
2022/12/18 08:04:43;;;;;;;48.03;15.35;;;;;;;;;;4975319;28;20124;-87
2022/12/18 08:07:12;;;;;;;57.95;15.65;;;;;;;;;;4975454;28;20508;-89
2022/12/18 08:09:38;;;;;;;49.38;15.48;;;;;;;;;;5001573;28;20065;-86
2022/12/18 08:12:04;;;;;;;46.25;15.15;;;;;;;;;;4969213;28;20088;-88
2022/12/18 08:14:30;;;;;;;51.20;16.48;;;;;;;;;;4989087;28;20041;-87
2022/12/18 08:17:02;;;;;;;47.30;14.75;;;;;;;;;;4991489;28;20136;-87
2022/12/18 08:19:28;;;;;;;45.45;15.90;;;;;;;;;;4975124;28;20511;-87
2022/12/18 08:21:54;;;;;;;50.90;15.65;;;;;;;;;;4974459;28;20033;-87
2022/12/18 08:24:20;;;;;;;44.97;15.10;;;;;;;;;;4998166;28;20052;-87
2022/12/18 08:26:46;;;;;;;56.58;16.77;;;;;;;;;;4994096;28;20117;-87
2022/12/18 08:29:12;;;;;;;47.03;16.27;;;;;;;;;;4989789;28;20040;-87
2022/12/18 08:31:38;;;;;;;46.33;14.80;;;;;;;;;;4994206;28;20045;-87
2022/12/18 08:34:05;;;;;;;33.00;13.70;;;;;;;;;;4977107;28;20034;-87
2022/12/18 08:36:31;;;;;;;52.30;15.50;;;;;;;;;;4978697;28;20037;-87
2022/12/18 08:38:57;;;;;;;47.47;15.80;;;;;;;;;;4982572;28;20042;-87
2022/12/18 08:41:23;;;;;;;41.47;14.30;;;;;;;;;;4993468;28;20573;-89
2022/12/18 08:46:38;;;;;;;36.25;14.70;;;;;;;;;;4992574;28;20084;-87
2022/12/18 08:49:05;;;;;;;41.25;13.38;;;;;;;;;;5004843;28;20050;-88
2022/12/18 08:51:31;;;;;;;54.17;15.05;;;;;;;;;;4967057;28;20044;-88
2022/12/18 08:53:57;;;;;;;39.88;14.00;;;;;;;;;;4977078;28;20037;-88
2022/12/18 08:56:23;;;;;;;46.53;16.30;;;;;;;;;;4995902;28;20029;-88
2022/12/18 08:58:52;;;;;;;40.05;15.98;;;;;;;;;;4980008;28;20037;-87
2022/12/18 09:01:18;;;;;;;43.42;16.40;;;;;;;;;;4991166;28;20030;-88
2022/12/18 09:03:44;;;;;;;43.00;14.95;;;;;;;;;;4979301;28;20045;-86
2022/12/18 09:06:14;;;;;;;37.38;12.80;;;;;;;;;;4980601;28;20030;-87
2022/12/18 09:08:40;;;;;;;48.80;15.73;;;;;;;;;;4990997;28;20029;-88
2022/12/18 09:11:12;;;;;;;29.73;11.57;;;;;;;;;;4979409;28;20034;-87
2022/12/18 09:13:38;;;;;;;42.15;14.35;;;;;;;;;;5004185;28;20166;-87
2022/12/18 09:16:04;;;;;;;36.72;13.70;;;;;;;;;;4982843;28;20489;-87
2022/12/18 09:18:30;;;;;;;43.83;13.80;;;;;;;;;;4993102;28;20059;-86
2022/12/18 09:20:56;;;;;;;42.33;15.95;;;;;;;;;;4990134;28;20038;-87
2022/12/18 09:23:22;;;;;;;44.35;15.15;;;;;;;;;;4997318;28;20387;-87
2022/12/18 09:25:49;;;;;;;47.70;14.27;;;;;;;;;;4992471;28;20033;-88
2022/12/18 09:28:16;;;;;;;40.28;15.02;;;;;;;;;;4996798;28;20021;-87
2022/12/18 09:30:43;;;;;;;45.83;14.73;;;;;;;;;;5000319;28;20478;-87
2022/12/18 09:33:10;;;;;;;37.60;13.57;;;;;;;;;;4995163;28;20033;-86
2022/12/18 09:35:39;;;;;;;33.85;12.82;;;;;;;;;;4993652;28;20516;-88
2022/12/18 09:38:08;;;;;;;42.00;13.40;;;;;;;;;;5009632;28;20040;-87
2022/12/18 09:40:42;;;;;;;31.42;13.00;;;;;;;;;;4975171;28;20029;-85
2022/12/18 09:43:14;;;;;;;38.20;13.48;;;;;;;;;;4988239;28;20027;-86
2022/12/18 09:45:45;;;;;;;31.23;12.45;;;;;;;;;;4996250;28;20045;-88
2022/12/18 09:48:16;;;;;;;33.33;13.40;;;;;;;;;;4990549;28;20481;-91
2022/12/18 09:50:50;;;;;;;32.63;12.90;;;;;;;;;;4990862;28;20080;-86
2022/12/18 09:53:20;;;;;;;32.33;11.75;;;;;;;;;;5008435;28;20124;-89
2022/12/18 09:55:47;;;;;;;31.30;12.48;;;;;;;;;;4994457;28;20084;-87
2022/12/18 09:58:26;;;;;;;28.85;11.30;;;;;;;;;;4995655;28;20034;-88
2022/12/18 10:01:01;;;;;;;37.20;12.10;;;;;;;;;;4990503;28;20394;-88
2022/12/18 10:03:30;;;;;;;19.67;7.63;;;;;;;;;;4976727;28;20038;-88
2022/12/18 10:06:02;;;;;;;30.05;12.35;;;;;;;;;;4975445;28;20037;-87
2022/12/18 10:08:51;;;;;;;27.67;10.75;;;;;;;;;;5006264;28;20060;-89
2022/12/18 10:11:39;;;;;;;31.05;11.13;;;;;;;;;;4989369;28;20030;-86
2022/12/18 10:14:20;;;;;;;29.83;10.02;;;;;;;;;;5003221;28;20022;-88
2022/12/18 10:16:46;;;;;;;24.63;10.55;;;;;;;;;;4996151;28;20037;-89
2022/12/18 10:19:23;;;;;;;26.50;12.20;;;;;;;;;;4997750;28;20478;-90
2022/12/18 10:21:56;;;;;;;26.13;9.88;;;;;;;;;;5003479;28;20563;-87
2022/12/18 10:24:36;;;;;;;21.92;8.98;;;;;;;;;;4991377;28;20030;-88
2022/12/18 10:27:29;;;;;;;28.17;10.52;;;;;;;;;;4993073;28;20505;-88
2022/12/18 10:29:55;;;;;;;17.63;8.68;;;;;;;;;;4988814;28;20573;-88
2022/12/18 10:32:24;;;;;;;24.92;9.90;;;;;;;;;;4992917;28;20498;-87
2022/12/18 10:34:51;;;;;;;15.57;8.05;;;;;;;;;;4997497;28;20084;-89
2022/12/18 10:37:21;;;;;;;20.40;8.80;;;;;;;;;;4991872;28;20096;-87
2022/12/18 10:40:05;;;;;;;23.63;9.07;;;;;;;;;;4987590;28;20080;-89
2022/12/18 10:42:33;;;;;;;17.00;7.88;;;;;;;;;;4985975;28;20607;-89
2022/12/18 10:45:17;;;;;;;23.55;8.05;;;;;;;;;;4974348;28;20076;-88
2022/12/18 10:47:48;;;;;;;16.70;8.50;;;;;;;;;;4984295;28;20034;-87
2022/12/18 10:50:29;;;;;;;16.05;7.30;;;;;;;;;;4976858;28;20038;-87
2022/12/18 10:53:07;;;;;;;19.08;8.65;;;;;;;;;;4974165;28;20397;-87
2022/12/18 10:55:34;;;;;;;23.77;8.68;;;;;;;;;;4989163;28;20080;-87
2022/12/18 10:58:19;;;;;;;17.60;7.93;;;;;;;;;;4969875;28;20031;-88
2022/12/18 11:00:45;;;;;;;14.38;6.88;;;;;;;;;;4976409;28;20428;-87
2022/12/18 11:03:35;;;;;;;19.77;7.70;;;;;;;;;;4958039;28;20040;-89
2022/12/18 11:06:04;;;;;;;16.30;7.60;;;;;;;;;;4974894;28;20034;-88
2022/12/18 11:08:30;;;;;;;23.13;8.05;;;;;;;;;;4971155;28;20474;-87
2022/12/18 11:10:56;;;;;;;18.30;7.43;;;;;;;;;;4990638;28;20383;-87
2022/12/18 11:13:27;;;;;;;15.25;7.07;;;;;;;;;;4956772;28;20034;-87
2022/12/18 11:15:53;;;;;;;18.70;7.88;;;;;;;;;;4987248;28;20037;-88
2022/12/18 11:18:30;;;;;;;18.45;7.10;;;;;;;;;;4966248;28;20597;-88
2022/12/18 11:21:01;;;;;;;16.00;5.97;;;;;;;;;;4985767;28;20026;-88
2022/12/18 11:23:28;;;;;;;16.88;7.78;;;;;;;;;;4989577;28;20029;-87
2022/12/18 11:26:04;;;;;;;18.35;7.55;;;;;;;;;;4973967;28;20041;-87
2022/12/18 11:28:48;;;;;;;17.00;6.97;;;;;;;;;;4973283;28;20038;-87
2022/12/18 11:31:19;;;;;;;16.65;7.70;;;;;;;;;;4974330;28;20069;-87
2022/12/18 11:34:11;;;;;;;12.93;6.53;;;;;;;;;;4977090;28;20045;-88
2022/12/18 11:36:41;;;;;;;14.95;7.00;;;;;;;;;;4968891;28;20405;-88
2022/12/18 11:39:12;;;;;;;16.85;7.78;;;;;;;;;;4989576;28;20038;-88
2022/12/18 11:44:32;;;;;;;16.00;6.35;;;;;;;;;;4987517;28;20147;-88
2022/12/18 11:47:02;;;;;;;15.63;6.05;;;;;;;;;;4974208;28;20041;-89
2022/12/18 11:49:39;;;;;;;20.83;6.47;;;;;;;;;;4987179;28;20111;-88
2022/12/18 11:52:09;;;;;;;18.70;6.53;;;;;;;;;;4974856;28;20038;-88
2022/12/18 11:54:35;;;;;;;17.75;6.45;;;;;;;;;;5000043;28;20560;-87
2022/12/18 11:57:17;;;;;;;14.02;6.68;;;;;;;;;;5006779;28;20029;-87
2022/12/18 12:00:02;;;;;;;16.25;6.72;;;;;;;;;;4989007;28;20045;-87
2022/12/18 12:02:57;;;;;;;20.27;6.55;;;;;;;;;;4993435;28;20449;-87
2022/12/18 12:05:32;;;;;;;17.52;6.43;;;;;;;;;;4969550;28;20045;-88
2022/12/18 12:08:15;;;;;;;12.23;6.10;;;;;;;;;;5003031;28;20030;-90
2022/12/18 12:10:46;;;;;;;11.23;6.28;;;;;;;;;;4998015;28;20041;-89
2022/12/18 12:13:21;;;;;;;13.32;5.93;;;;;;;;;;4990010;28;20474;-88
2022/12/18 12:16:06;;;;;;;12.32;5.22;;;;;;;;;;4988847;28;20026;-88
2022/12/18 12:18:38;;;;;;;10.32;5.15;;;;;;;;;;5001314;28;20550;-89
2022/12/18 12:21:30;;;;;;;9.57;4.82;;;;;;;;;;4989198;28;20029;-89
2022/12/18 12:24:02;;;;;;;14.25;6.38;;;;;;;;;;4957975;28;20450;-88
2022/12/18 12:26:28;;;;;;;12.88;6.10;;;;;;;;;;4988782;28;20038;-87
2022/12/18 12:29:02;;;;;;;9.77;4.85;;;;;;;;;;4983120;28;20057;-88
2022/12/18 12:31:46;;;;;;;13.77;5.72;;;;;;;;;;4997161;28;20038;-88
2022/12/18 12:34:12;;;;;;;12.63;4.97;;;;;;;;;;4991877;28;20621;-88
2022/12/18 12:36:46;;;;;;;12.18;5.28;;;;;;;;;;4989746;28;20029;-87
2022/12/18 12:39:14;;;;;;;13.00;5.18;;;;;;;;;;4994622;28;20501;-87
2022/12/18 12:44:36;;;;;;;11.88;4.90;;;;;;;;;;5005446;28;20085;-91
2022/12/18 12:47:10;;;;;;;11.23;4.63;;;;;;;;;;4992881;28;20029;-87
2022/12/18 12:49:49;;;;;;;10.00;4.40;;;;;;;;;;4993621;28;20037;-88
2022/12/18 12:52:37;;;;;;;11.80;5.15;;;;;;;;;;4960353;28;20031;-87
2022/12/18 12:55:04;;;;;;;13.60;5.75;;;;;;;;;;4994618;28;20031;-89
2022/12/18 12:57:34;;;;;;;52.55;6.20;;;;;;;;;;4967092;28;20065;-88
2022/12/18 13:00:09;;;;;;;10.93;4.95;;;;;;;;;;4975478;28;20039;-87
2022/12/18 13:02:49;;;;;;;9.77;4.25;;;;;;;;;;4970085;28;20566;-88
2022/12/18 13:05:19;;;;;;;12.77;5.78;;;;;;;;;;4968319;28;20031;-88
2022/12/18 13:07:50;;;;;;;16.95;4.90;;;;;;;;;;4973871;28;20446;-88
2022/12/18 13:10:27;;;;;;;11.80;4.85;;;;;;;;;;4973052;28;20558;-87
2022/12/18 13:13:01;;;;;;;16.90;4.15;;;;;;;;;;4989934;28;20052;-88
2022/12/18 13:15:46;;;;;;;12.68;4.72;;;;;;;;;;4977522;28;20046;-88
2022/12/18 13:18:16;;;;;;;13.02;5.00;;;;;;;;;;4985991;28;20042;-88
2022/12/18 13:20:48;;;;;;;11.70;4.90;;;;;;;;;;4996495;28;20026;-88
2022/12/18 13:23:24;;;;;;;13.05;5.10;;;;;;;;;;4991142;28;20027;-87
2022/12/18 13:25:50;;;;;;;17.77;5.60;;;;;;;;;;4990092;28;20025;-88
2022/12/18 13:28:18;;;;;;;10.57;4.72;;;;;;;;;;4980072;28;20124;-89
2022/12/18 13:30:45;;;;;;;7.90;3.45;;;;;;;;;;4988531;28;20096;-88
2022/12/18 13:33:15;;;;;;;9.63;4.70;;;;;;;;;;4995490;28;20030;-87
2022/12/18 13:35:52;;;;;;;11.82;5.05;;;;;;;;;;4989200;28;20038;-87
2022/12/18 13:38:35;;;;;;;12.77;4.95;;;;;;;;;;4986822;28;20543;-86
2022/12/18 13:41:20;;;;;;;16.30;5.60;;;;;;;;;;4991212;28;20030;-88
2022/12/18 13:43:57;;;;;;;19.67;5.32;;;;;;;;;;4992556;28;20088;-88
2022/12/18 13:46:26;;;;;;;10.45;5.40;;;;;;;;;;4995276;28;20053;-89
2022/12/18 13:48:57;;;;;;;13.75;5.63;;;;;;;;;;4991769;28;20034;-88
2022/12/18 13:51:24;;;;;;;13.43;5.40;;;;;;;;;;4993793;28;20042;-89
2022/12/18 13:53:57;;;;;;;10.95;4.25;;;;;;;;;;4999992;28;20038;-88
2022/12/18 13:56:43;;;;;;;13.02;5.05;;;;;;;;;;4993603;28;20409;-89
2022/12/18 13:59:12;;;;;;;12.27;4.82;;;;;;;;;;4991045;28;20444;-89
2022/12/18 14:01:42;;;;;;;16.10;4.93;;;;;;;;;;4997857;28;20026;-87
2022/12/18 14:04:13;;;;;;;8.82;4.40;;;;;;;;;;4994555;28;20280;-88
2022/12/18 14:06:42;;;;;;;8.18;4.60;;;;;;;;;;5009076;28;20633;-87
2022/12/18 14:09:13;;;;;;;11.75;5.10;;;;;;;;;;4993344;28;20341;-88
2022/12/18 14:11:46;;;;;;;12.93;4.82;;;;;;;;;;4993497;28;20530;-88
2022/12/18 14:14:14;;;;;;;10.15;4.88;;;;;;;;;;4984985;28;20682;-88
2022/12/18 14:16:41;;;;;;;12.13;5.13;;;;;;;;;;4994515;28;20041;-89
2022/12/18 14:19:12;;;;;;;11.13;5.28;;;;;;;;;;4993757;28;20417;-88
2022/12/18 14:21:45;;;;;;;14.60;5.22;;;;;;;;;;5003116;28;20038;-89
2022/12/18 14:24:18;;;;;;;10.65;4.60;;;;;;;;;;4994109;28;20030;-88
2022/12/18 14:26:45;;;;;;;13.25;5.30;;;;;;;;;;5010288;28;20061;-88
2022/12/18 14:29:22;;;;;;;13.57;5.50;;;;;;;;;;4999342;28;20093;-88
2022/12/18 14:32:10;;;;;;;12.73;5.78;;;;;;;;;;4989030;28;20026;-88
2022/12/18 14:34:36;;;;;;;12.75;5.03;;;;;;;;;;4986551;28;20294;-87
2022/12/18 14:37:02;;;;;;;11.07;5.72;;;;;;;;;;4977313;28;20030;-87
2022/12/18 14:39:30;;;;;;;10.35;4.97;;;;;;;;;;4986119;28;20038;-90
2022/12/18 14:41:56;;;;;;;16.95;5.25;;;;;;;;;;4970457;28;20041;-87
2022/12/18 14:44:23;;;;;;;12.43;5.40;;;;;;;;;;4987648;28;20031;-88